sensor_id;sensor_type;location;lat;lon;timestamp;P1;durP1;ratioP1;P2;durP2;ratioP2
21804;SDS011;11064;47.102;15.452;2023-02-15T05:01:37;43.78;;;22.50;;
21804;SDS011;11064;47.102;15.452;2023-02-15T05:04:03;48.10;;;23.48;;
21804;SDS011;11064;47.102;15.452;2023-02-15T05:06:29;45.83;;;21.50;;
21804;SDS011;11064;47.102;15.452;2023-02-15T05:08:55;42.40;;;22.33;;
21804;SDS011;11064;47.102;15.452;2023-02-15T05:11:23;45.00;;;22.55;;
21804;SDS011;11064;47.102;15.452;2023-02-15T05:13:50;42.03;;;22.20;;
21804;SDS011;11064;47.102;15.452;2023-02-15T05:16:16;47.33;;;23.67;;
21804;SDS011;11064;47.102;15.452;2023-02-15T05:18:42;44.28;;;22.40;;
21804;SDS011;11064;47.102;15.452;2023-02-15T05:21:08;48.03;;;22.95;;
21804;SDS011;11064;47.102;15.452;2023-02-15T05:23:34;45.80;;;21.40;;
21804;SDS011;11064;47.102;15.452;2023-02-15T05:26:00;47.67;;;23.08;;
21804;SDS011;11064;47.102;15.452;2023-02-15T05:28:45;46.08;;;23.20;;
21804;SDS011;11064;47.102;15.452;2023-02-15T05:31:14;41.60;;;21.60;;
21804;SDS011;11064;47.102;15.452;2023-02-15T05:33:44;43.70;;;21.77;;
21804;SDS011;11064;47.102;15.452;2023-02-15T05:36:10;45.35;;;21.85;;
21804;SDS011;11064;47.102;15.452;2023-02-15T05:38:36;40.90;;;20.48;;
21804;SDS011;11064;47.102;15.452;2023-02-15T05:41:07;41.88;;;20.67;;
21804;SDS011;11064;47.102;15.452;2023-02-15T05:43:34;45.45;;;20.80;;
21804;SDS011;11064;47.102;15.452;2023-02-15T05:46:00;37.78;;;20.70;;
21804;SDS011;11064;47.102;15.452;2023-02-15T05:48:28;41.90;;;20.67;;
21804;SDS011;11064;47.102;15.452;2023-02-15T05:50:58;44.22;;;21.48;;
21804;SDS011;11064;47.102;15.452;2023-02-15T05:53:27;42.78;;;20.85;;
21804;SDS011;11064;47.102;15.452;2023-02-15T05:55:55;42.83;;;21.83;;
21804;SDS011;11064;47.102;15.452;2023-02-15T05:58:25;41.70;;;20.33;;
21804;SDS011;11064;47.102;15.452;2023-02-15T06:00:52;40.33;;;20.52;;
21804;SDS011;11064;47.102;15.452;2023-02-15T06:03:18;40.50;;;19.17;;
21804;SDS011;11064;47.102;15.452;2023-02-15T06:05:44;40.05;;;19.45;;
21804;SDS011;11064;47.102;15.452;2023-02-15T06:08:10;38.95;;;19.35;;
21804;SDS011;11064;47.102;15.452;2023-02-15T06:10:36;40.67;;;19.77;;
21804;SDS011;11064;47.102;15.452;2023-02-15T06:13:01;36.97;;;19.48;;
21804;SDS011;11064;47.102;15.452;2023-02-15T06:15:27;36.33;;;18.10;;
21804;SDS011;11064;47.102;15.452;2023-02-15T06:17:53;38.90;;;19.27;;
21804;SDS011;11064;47.102;15.452;2023-02-15T06:20:19;35.70;;;19.23;;
21804;SDS011;11064;47.102;15.452;2023-02-15T06:22:45;35.50;;;18.55;;
21804;SDS011;11064;47.102;15.452;2023-02-15T06:25:11;39.28;;;19.13;;
21804;SDS011;11064;47.102;15.452;2023-02-15T06:27:37;34.58;;;19.42;;
21804;SDS011;11064;47.102;15.452;2023-02-15T06:30:05;38.72;;;20.45;;
21804;SDS011;11064;47.102;15.452;2023-02-15T06:32:32;37.78;;;19.92;;
21804;SDS011;11064;47.102;15.452;2023-02-15T06:34:58;39.50;;;20.67;;
21804;SDS011;11064;47.102;15.452;2023-02-15T06:37:24;40.42;;;20.05;;
21804;SDS011;11064;47.102;15.452;2023-02-15T06:39:50;43.72;;;21.45;;
21804;SDS011;11064;47.102;15.452;2023-02-15T06:42:15;42.72;;;22.02;;
21804;SDS011;11064;47.102;15.452;2023-02-15T06:44:43;36.30;;;19.90;;
21804;SDS011;11064;47.102;15.452;2023-02-15T06:47:10;40.58;;;20.15;;
21804;SDS011;11064;47.102;15.452;2023-02-15T06:49:36;42.72;;;21.00;;
21804;SDS011;11064;47.102;15.452;2023-02-15T06:52:02;42.40;;;20.45;;
21804;SDS011;11064;47.102;15.452;2023-02-15T06:54:30;40.28;;;21.20;;
21804;SDS011;11064;47.102;15.452;2023-02-15T06:56:56;42.47;;;20.45;;
21804;SDS011;11064;47.102;15.452;2023-02-15T06:59:21;40.83;;;20.05;;
21804;SDS011;11064;47.102;15.452;2023-02-15T07:01:47;39.67;;;20.33;;
21804;SDS011;11064;47.102;15.452;2023-02-15T07:04:16;38.63;;;20.10;;
21804;SDS011;11064;47.102;15.452;2023-02-15T07:06:41;41.40;;;20.13;;
21804;SDS011;11064;47.102;15.452;2023-02-15T07:09:07;41.58;;;20.70;;
21804;SDS011;11064;47.102;15.452;2023-02-15T07:11:33;40.33;;;20.23;;
21804;SDS011;11064;47.102;15.452;2023-02-15T07:14:18;40.28;;;20.20;;
21804;SDS011;11064;47.102;15.452;2023-02-15T07:16:43;39.47;;;19.88;;
21804;SDS011;11064;47.102;15.452;2023-02-15T07:19:09;39.20;;;20.63;;
21804;SDS011;11064;47.102;15.452;2023-02-15T07:21:35;41.22;;;20.83;;
21804;SDS011;11064;47.102;15.452;2023-02-15T07:24:01;38.28;;;20.13;;
21804;SDS011;11064;47.102;15.452;2023-02-15T07:26:28;40.08;;;20.88;;
21804;SDS011;11064;47.102;15.452;2023-02-15T07:28:56;43.97;;;21.15;;
21804;SDS011;11064;47.102;15.452;2023-02-15T07:31:22;45.63;;;21.13;;
21804;SDS011;11064;47.102;15.452;2023-02-15T07:33:47;39.67;;;21.27;;
21804;SDS011;11064;47.102;15.452;2023-02-15T07:36:13;44.35;;;23.45;;
21804;SDS011;11064;47.102;15.452;2023-02-15T07:38:40;44.30;;;22.38;;
21804;SDS011;11064;47.102;15.452;2023-02-15T07:41:08;44.47;;;22.08;;
21804;SDS011;11064;47.102;15.452;2023-02-15T07:43:37;44.65;;;22.58;;
21804;SDS011;11064;47.102;15.452;2023-02-15T07:46:07;44.25;;;22.70;;
21804;SDS011;11064;47.102;15.452;2023-02-15T07:48:35;44.00;;;22.65;;
21804;SDS011;11064;47.102;15.452;2023-02-15T07:51:02;47.85;;;23.52;;
21804;SDS011;11064;47.102;15.452;2023-02-15T07:53:30;46.72;;;23.38;;
21804;SDS011;11064;47.102;15.452;2023-02-15T07:55:59;45.17;;;21.88;;
21804;SDS011;11064;47.102;15.452;2023-02-15T07:58:26;47.67;;;23.90;;
21804;SDS011;11064;47.102;15.452;2023-02-15T08:01:13;41.03;;;21.75;;
21804;SDS011;11064;47.102;15.452;2023-02-15T08:03:39;45.92;;;22.73;;
21804;SDS011;11064;47.102;15.452;2023-02-15T08:06:05;40.95;;;21.85;;
21804;SDS011;11064;47.102;15.452;2023-02-15T08:08:34;46.28;;;23.38;;
21804;SDS011;11064;47.102;15.452;2023-02-15T08:11:01;45.92;;;23.30;;
21804;SDS011;11064;47.102;15.452;2023-02-15T08:14:00;42.83;;;20.63;;
21804;SDS011;11064;47.102;15.452;2023-02-15T08:16:30;46.05;;;21.88;;
21804;SDS011;11064;47.102;15.452;2023-02-15T08:18:56;44.35;;;22.55;;
21804;SDS011;11064;47.102;15.452;2023-02-15T08:21:25;45.63;;;24.00;;
21804;SDS011;11064;47.102;15.452;2023-02-15T08:23:53;45.90;;;24.50;;
21804;SDS011;11064;47.102;15.452;2023-02-15T08:26:19;44.97;;;23.25;;
21804;SDS011;11064;47.102;15.452;2023-02-15T08:28:46;42.22;;;23.10;;
21804;SDS011;11064;47.102;15.452;2023-02-15T08:31:13;42.90;;;22.85;;
21804;SDS011;11064;47.102;15.452;2023-02-15T08:33:39;40.95;;;22.60;;
21804;SDS011;11064;47.102;15.452;2023-02-15T08:36:08;44.97;;;22.52;;
21804;SDS011;11064;47.102;15.452;2023-02-15T08:38:36;45.03;;;23.85;;
21804;SDS011;11064;47.102;15.452;2023-02-15T08:41:09;44.25;;;23.45;;
21804;SDS011;11064;47.102;15.452;2023-02-15T08:43:39;45.22;;;23.33;;
21804;SDS011;11064;47.102;15.452;2023-02-15T08:46:06;46.92;;;25.02;;
21804;SDS011;11064;47.102;15.452;2023-02-15T08:48:33;50.90;;;25.95;;
21804;SDS011;11064;47.102;15.452;2023-02-15T08:50:59;48.08;;;24.42;;
21804;SDS011;11064;47.102;15.452;2023-02-15T08:53:30;47.65;;;25.30;;
21804;SDS011;11064;47.102;15.452;2023-02-15T08:55:56;47.22;;;26.00;;
21804;SDS011;11064;47.102;15.452;2023-02-15T08:58:23;46.72;;;24.63;;
21804;SDS011;11064;47.102;15.452;2023-02-15T09:00:50;43.83;;;24.65;;
21804;SDS011;11064;47.102;15.452;2023-02-15T09:03:16;48.10;;;25.67;;
21804;SDS011;11064;47.102;15.452;2023-02-15T09:05:42;43.05;;;24.23;;
21804;SDS011;11064;47.102;15.452;2023-02-15T09:08:08;42.63;;;23.83;;
21804;SDS011;11064;47.102;15.452;2023-02-15T09:10:33;50.53;;;25.25;;
21804;SDS011;11064;47.102;15.452;2023-02-15T09:12:59;44.58;;;24.83;;
21804;SDS011;11064;47.102;15.452;2023-02-15T09:15:25;43.55;;;25.13;;
21804;SDS011;11064;47.102;15.452;2023-02-15T09:17:51;43.75;;;25.08;;
21804;SDS011;11064;47.102;15.452;2023-02-15T09:20:17;45.60;;;24.50;;
21804;SDS011;11064;47.102;15.452;2023-02-15T09:22:43;45.03;;;24.75;;
21804;SDS011;11064;47.102;15.452;2023-02-15T09:25:09;44.00;;;24.92;;
21804;SDS011;11064;47.102;15.452;2023-02-15T09:27:35;43.92;;;24.75;;
21804;SDS011;11064;47.102;15.452;2023-02-15T09:30:02;43.03;;;24.55;;
21804;SDS011;11064;47.102;15.452;2023-02-15T09:32:29;45.83;;;25.88;;
21804;SDS011;11064;47.102;15.452;2023-02-15T09:34:54;48.08;;;26.35;;
21804;SDS011;11064;47.102;15.452;2023-02-15T09:37:20;45.10;;;25.55;;
21804;SDS011;11064;47.102;15.452;2023-02-15T09:39:46;46.40;;;25.67;;
21804;SDS011;11064;47.102;15.452;2023-02-15T09:42:28;45.40;;;26.13;;
21804;SDS011;11064;47.102;15.452;2023-02-15T09:54:36;51.05;;;25.10;;
21804;SDS011;11064;47.102;15.452;2023-02-15T09:56:49;45.58;;;25.13;;
21804;SDS011;11064;47.102;15.452;2023-02-15T09:59:27;47.40;;;25.38;;
21804;SDS011;11064;47.102;15.452;2023-02-15T10:05:28;46.35;;;24.90;;
21804;SDS011;11064;47.102;15.452;2023-02-15T10:08:48;42.10;;;23.25;;
21804;SDS011;11064;47.102;15.452;2023-02-15T10:14:12;45.70;;;25.05;;
21804;SDS011;11064;47.102;15.452;2023-02-15T10:27:48;45.20;;;24.33;;
21804;SDS011;11064;47.102;15.452;2023-02-15T10:30:19;52.53;;;25.65;;
21804;SDS011;11064;47.102;15.452;2023-02-15T10:33:03;50.90;;;25.40;;
21804;SDS011;11064;47.102;15.452;2023-02-15T10:38:24;47.30;;;25.23;;
21804;SDS011;11064;47.102;15.452;2023-02-15T10:44:28;47.90;;;24.52;;
21804;SDS011;11064;47.102;15.452;2023-02-15T10:52:00;49.33;;;25.15;;
21804;SDS011;11064;47.102;15.452;2023-02-15T11:00:16;42.67;;;23.73;;
21804;SDS011;11064;47.102;15.452;2023-02-15T11:09:00;49.60;;;25.10;;
21804;SDS011;11064;47.102;15.452;2023-02-15T11:11:34;49.50;;;25.73;;
21804;SDS011;11064;47.102;15.452;2023-02-15T11:17:08;46.33;;;25.77;;
21804;SDS011;11064;47.102;15.452;2023-02-15T11:19:50;48.33;;;25.40;;
21804;SDS011;11064;47.102;15.452;2023-02-15T11:22:28;44.13;;;24.08;;
21804;SDS011;11064;47.102;15.452;2023-02-15T11:24:57;47.17;;;24.33;;
21804;SDS011;11064;47.102;15.452;2023-02-15T11:27:26;54.13;;;26.63;;
21804;SDS011;11064;47.102;15.452;2023-02-15T11:32:37;47.78;;;25.98;;
21804;SDS011;11064;47.102;15.452;2023-02-15T11:37:58;49.28;;;26.05;;
21804;SDS011;11064;47.102;15.452;2023-02-15T11:43:10;49.05;;;25.77;;
21804;SDS011;11064;47.102;15.452;2023-02-15T11:45:45;53.88;;;27.63;;
21804;SDS011;11064;47.102;15.452;2023-02-15T11:48:12;49.50;;;26.95;;
21804;SDS011;11064;47.102;15.452;2023-02-15T11:50:40;54.42;;;26.90;;
21804;SDS011;11064;47.102;15.452;2023-02-15T11:55:39;52.30;;;27.30;;
21804;SDS011;11064;47.102;15.452;2023-02-15T12:03:42;49.17;;;26.98;;
21804;SDS011;11064;47.102;15.452;2023-02-15T12:06:17;56.83;;;27.83;;
21804;SDS011;11064;47.102;15.452;2023-02-15T12:14:53;52.28;;;27.17;;
21804;SDS011;11064;47.102;15.452;2023-02-15T12:17:31;52.65;;;27.42;;
21804;SDS011;11064;47.102;15.452;2023-02-15T12:20:03;50.50;;;26.95;;
21804;SDS011;11064;47.102;15.452;2023-02-15T12:22:37;48.13;;;26.48;;
21804;SDS011;11064;47.102;15.452;2023-02-15T12:25:18;51.13;;;27.90;;
21804;SDS011;11064;47.102;15.452;2023-02-15T12:27:47;50.05;;;28.20;;
21804;SDS011;11064;47.102;15.452;2023-02-15T12:33:13;51.80;;;25.73;;
21804;SDS011;11064;47.102;15.452;2023-02-15T12:35:39;54.42;;;25.80;;
21804;SDS011;11064;47.102;15.452;2023-02-15T12:40:36;53.65;;;27.45;;
21804;SDS011;11064;47.102;15.452;2023-02-15T12:43:03;54.50;;;27.52;;
21804;SDS011;11064;47.102;15.452;2023-02-15T12:45:37;55.80;;;27.70;;
21804;SDS011;11064;47.102;15.452;2023-02-15T12:50:39;52.05;;;27.55;;
21804;SDS011;11064;47.102;15.452;2023-02-15T12:53:19;56.10;;;27.10;;
21804;SDS011;11064;47.102;15.452;2023-02-15T12:58:26;50.05;;;26.90;;
21804;SDS011;11064;47.102;15.452;2023-02-15T13:03:37;52.78;;;26.90;;
21804;SDS011;11064;47.102;15.452;2023-02-15T13:06:25;58.38;;;28.75;;
21804;SDS011;11064;47.102;15.452;2023-02-15T13:08:54;56.20;;;28.27;;
21804;SDS011;11064;47.102;15.452;2023-02-15T13:11:31;49.90;;;26.48;;
21804;SDS011;11064;47.102;15.452;2023-02-15T13:14:03;56.42;;;27.58;;
21804;SDS011;11064;47.102;15.452;2023-02-15T13:16:44;56.20;;;27.05;;
21804;SDS011;11064;47.102;15.452;2023-02-15T13:19:26;50.25;;;26.15;;
21804;SDS011;11064;47.102;15.452;2023-02-15T13:22:10;52.90;;;27.40;;
21804;SDS011;11064;47.102;15.452;2023-02-15T13:24:59;55.22;;;27.02;;
21804;SDS011;11064;47.102;15.452;2023-02-15T13:27:35;54.42;;;26.60;;
21804;SDS011;11064;47.102;15.452;2023-02-15T13:30:10;54.33;;;27.75;;
21804;SDS011;11064;47.102;15.452;2023-02-15T13:33:53;51.53;;;26.35;;
21804;SDS011;11064;47.102;15.452;2023-02-15T13:41:43;53.58;;;26.35;;
21804;SDS011;11064;47.102;15.452;2023-02-15T13:47:21;55.33;;;26.55;;
21804;SDS011;11064;47.102;15.452;2023-02-15T13:52:46;58.80;;;28.02;;
21804;SDS011;11064;47.102;15.452;2023-02-15T14:00:47;53.95;;;28.05;;
21804;SDS011;11064;47.102;15.452;2023-02-15T14:14:46;56.80;;;27.85;;
21804;SDS011;11064;47.102;15.452;2023-02-15T14:25:25;54.67;;;26.90;;
21804;SDS011;11064;47.102;15.452;2023-02-15T14:28:04;57.20;;;27.98;;
21804;SDS011;11064;47.102;15.452;2023-02-15T14:30:42;59.45;;;28.25;;
21804;SDS011;11064;47.102;15.452;2023-02-15T14:35:50;55.60;;;28.20;;
21804;SDS011;11064;47.102;15.452;2023-02-15T14:38:33;60.42;;;28.85;;
21804;SDS011;11064;47.102;15.452;2023-02-15T14:41:18;58.70;;;27.75;;
21804;SDS011;11064;47.102;15.452;2023-02-15T14:49:22;64.13;;;28.23;;
21804;SDS011;11064;47.102;15.452;2023-02-15T14:59:27;65.22;;;29.05;;
21804;SDS011;11064;47.102;15.452;2023-02-15T15:05:08;56.30;;;27.90;;
21804;SDS011;11064;47.102;15.452;2023-02-15T15:15:11;56.95;;;27.67;;
21804;SDS011;11064;47.102;15.452;2023-02-15T15:20:46;55.22;;;27.30;;
21804;SDS011;11064;47.102;15.452;2023-02-15T15:25:59;57.72;;;28.00;;
21804;SDS011;11064;47.102;15.452;2023-02-15T15:31:15;61.10;;;28.95;;
21804;SDS011;11064;47.102;15.452;2023-02-15T15:33:55;60.78;;;29.75;;
21804;SDS011;11064;47.102;15.452;2023-02-15T15:48:36;63.75;;;29.30;;
21804;SDS011;11064;47.102;15.452;2023-02-15T15:51:06;68.82;;;29.88;;
21804;SDS011;11064;47.102;15.452;2023-02-15T15:53:41;66.50;;;30.63;;
21804;SDS011;11064;47.102;15.452;2023-02-15T15:56:13;61.60;;;28.95;;
21804;SDS011;11064;47.102;15.452;2023-02-15T15:58:46;66.05;;;29.67;;
21804;SDS011;11064;47.102;15.452;2023-02-15T16:01:25;62.70;;;28.50;;
21804;SDS011;11064;47.102;15.452;2023-02-15T16:03:54;60.53;;;28.45;;
21804;SDS011;11064;47.102;15.452;2023-02-15T16:06:29;65.45;;;29.73;;
21804;SDS011;11064;47.102;15.452;2023-02-15T16:09:08;70.63;;;30.48;;
21804;SDS011;11064;47.102;15.452;2023-02-15T16:11:35;65.38;;;29.55;;
21804;SDS011;11064;47.102;15.452;2023-02-15T16:16:59;68.55;;;30.52;;
21804;SDS011;11064;47.102;15.452;2023-02-15T16:19:28;80.13;;;32.95;;
21804;SDS011;11064;47.102;15.452;2023-02-15T16:21:58;68.28;;;30.60;;
21804;SDS011;11064;47.102;15.452;2023-02-15T16:29:40;73.43;;;31.15;;
21804;SDS011;11064;47.102;15.452;2023-02-15T16:32:15;72.63;;;31.50;;
21804;SDS011;11064;47.102;15.452;2023-02-15T16:34:55;71.75;;;32.03;;
21804;SDS011;11064;47.102;15.452;2023-02-15T16:37:32;69.68;;;31.35;;
21804;SDS011;11064;47.102;15.452;2023-02-15T16:40:00;76.57;;;32.50;;
21804;SDS011;11064;47.102;15.452;2023-02-15T16:42:29;86.18;;;33.50;;
21804;SDS011;11064;47.102;15.452;2023-02-15T16:45:08;79.78;;;33.47;;
21804;SDS011;11064;47.102;15.452;2023-02-15T16:47:44;78.03;;;32.40;;
21804;SDS011;11064;47.102;15.452;2023-02-15T16:50:20;85.78;;;34.30;;
21804;SDS011;11064;47.102;15.452;2023-02-15T16:52:49;76.40;;;31.83;;
21804;SDS011;11064;47.102;15.452;2023-02-15T16:55:23;70.88;;;31.33;;
21804;SDS011;11064;47.102;15.452;2023-02-15T16:58:00;101.20;;;46.78;;
21804;SDS011;11064;47.102;15.452;2023-02-15T17:00:34;94.78;;;41.28;;
21804;SDS011;11064;47.102;15.452;2023-02-15T17:03:03;90.97;;;38.30;;
21804;SDS011;11064;47.102;15.452;2023-02-15T17:05:32;103.15;;;44.97;;
21804;SDS011;11064;47.102;15.452;2023-02-15T17:08:06;101.65;;;43.67;;
21804;SDS011;11064;47.102;15.452;2023-02-15T17:14:17;83.53;;;35.53;;
21804;SDS011;11064;47.102;15.452;2023-02-15T17:19:31;84.35;;;34.38;;
21804;SDS011;11064;47.102;15.452;2023-02-15T17:22:07;80.20;;;33.33;;
21804;SDS011;11064;47.102;15.452;2023-02-15T17:24:42;74.68;;;32.03;;
21804;SDS011;11064;47.102;15.452;2023-02-15T17:29:57;72.90;;;32.55;;
21804;SDS011;11064;47.102;15.452;2023-02-15T17:32:28;79.80;;;34.20;;
21804;SDS011;11064;47.102;15.452;2023-02-15T17:40:30;99.63;;;42.88;;
21804;SDS011;11064;47.102;15.452;2023-02-15T17:42:55;83.75;;;37.92;;
21804;SDS011;11064;47.102;15.452;2023-02-15T17:45:24;87.82;;;36.38;;
21804;SDS011;11064;47.102;15.452;2023-02-15T17:47:57;91.60;;;36.75;;
21804;SDS011;11064;47.102;15.452;2023-02-15T17:50:28;84.20;;;34.30;;
21804;SDS011;11064;47.102;15.452;2023-02-15T17:52:55;86.95;;;33.35;;
21804;SDS011;11064;47.102;15.452;2023-02-15T17:55:23;88.38;;;34.80;;
21804;SDS011;11064;47.102;15.452;2023-02-15T17:57:59;95.72;;;35.67;;
21804;SDS011;11064;47.102;15.452;2023-02-15T18:00:27;90.93;;;34.90;;
21804;SDS011;11064;47.102;15.452;2023-02-15T18:03:12;87.90;;;35.70;;
21804;SDS011;11064;47.102;15.452;2023-02-15T18:05:57;81.30;;;33.80;;
21804;SDS011;11064;47.102;15.452;2023-02-15T18:08:42;82.30;;;34.50;;
21804;SDS011;11064;47.102;15.452;2023-02-15T18:11:27;88.93;;;37.22;;
21804;SDS011;11064;47.102;15.452;2023-02-15T18:14:06;84.55;;;35.75;;
21804;SDS011;11064;47.102;15.452;2023-02-15T18:16:36;92.72;;;36.38;;
21804;SDS011;11064;47.102;15.452;2023-02-15T18:19:14;89.05;;;36.22;;
21804;SDS011;11064;47.102;15.452;2023-02-15T18:21:52;82.72;;;35.50;;
21804;SDS011;11064;47.102;15.452;2023-02-15T18:24:22;80.45;;;34.67;;
21804;SDS011;11064;47.102;15.452;2023-02-15T18:26:54;78.32;;;33.90;;
21804;SDS011;11064;47.102;15.452;2023-02-15T18:29:20;80.57;;;33.67;;
21804;SDS011;11064;47.102;15.452;2023-02-15T18:31:47;74.43;;;33.28;;
21804;SDS011;11064;47.102;15.452;2023-02-15T18:34:27;76.15;;;34.20;;
21804;SDS011;11064;47.102;15.452;2023-02-15T18:37:00;75.53;;;33.05;;
21804;SDS011;11064;47.102;15.452;2023-02-15T18:39:33;78.72;;;32.85;;
21804;SDS011;11064;47.102;15.452;2023-02-15T18:42:17;74.72;;;33.95;;
21804;SDS011;11064;47.102;15.452;2023-02-15T18:44:49;77.10;;;32.10;;
21804;SDS011;11064;47.102;15.452;2023-02-15T18:47:22;81.70;;;32.53;;
21804;SDS011;11064;47.102;15.452;2023-02-15T18:49:50;77.20;;;32.97;;
21804;SDS011;11064;47.102;15.452;2023-02-15T18:52:17;86.97;;;34.55;;
21804;SDS011;11064;47.102;15.452;2023-02-15T18:54:47;77.38;;;34.47;;
21804;SDS011;11064;47.102;15.452;2023-02-15T18:57:17;80.18;;;34.67;;
21804;SDS011;11064;47.102;15.452;2023-02-15T18:59:44;79.43;;;34.50;;
21804;SDS011;11064;47.102;15.452;2023-02-15T19:02:14;79.97;;;35.35;;
21804;SDS011;11064;47.102;15.452;2023-02-15T19:04:42;76.72;;;33.40;;
21804;SDS011;11064;47.102;15.452;2023-02-15T19:09:47;76.53;;;33.33;;
21804;SDS011;11064;47.102;15.452;2023-02-15T19:12:16;81.65;;;35.85;;
21804;SDS011;11064;47.102;15.452;2023-02-15T19:14:46;83.70;;;35.83;;
21804;SDS011;11064;47.102;15.452;2023-02-15T19:17:16;83.53;;;35.80;;
21804;SDS011;11064;47.102;15.452;2023-02-15T19:19:44;86.88;;;35.45;;
21804;SDS011;11064;47.102;15.452;2023-02-15T19:22:14;93.88;;;39.00;;
21804;SDS011;11064;47.102;15.452;2023-02-15T19:24:47;91.82;;;38.20;;
21804;SDS011;11064;47.102;15.452;2023-02-15T19:27:19;92.53;;;38.47;;
21804;SDS011;11064;47.102;15.452;2023-02-15T19:29:56;85.05;;;35.72;;
21804;SDS011;11064;47.102;15.452;2023-02-15T19:32:24;86.68;;;37.17;;
21804;SDS011;11064;47.102;15.452;2023-02-15T19:34:52;91.28;;;37.38;;
21804;SDS011;11064;47.102;15.452;2023-02-15T19:37:22;91.18;;;38.30;;
21804;SDS011;11064;47.102;15.452;2023-02-15T19:39:59;85.90;;;36.60;;
21804;SDS011;11064;47.102;15.452;2023-02-15T19:42:27;85.95;;;37.78;;
21804;SDS011;11064;47.102;15.452;2023-02-15T19:44:54;87.30;;;35.60;;
21804;SDS011;11064;47.102;15.452;2023-02-15T19:47:20;92.57;;;37.35;;
21804;SDS011;11064;47.102;15.452;2023-02-15T19:49:47;84.82;;;36.00;;
21804;SDS011;11064;47.102;15.452;2023-02-15T19:52:17;80.07;;;34.10;;
21804;SDS011;11064;47.102;15.452;2023-02-15T19:54:48;79.03;;;33.40;;
21804;SDS011;11064;47.102;15.452;2023-02-15T19:57:16;75.82;;;35.38;;
21804;SDS011;11064;47.102;15.452;2023-02-15T19:59:44;87.55;;;36.33;;
21804;SDS011;11064;47.102;15.452;2023-02-15T20:02:13;88.00;;;36.67;;
21804;SDS011;11064;47.102;15.452;2023-02-15T20:04:43;83.65;;;36.78;;
21804;SDS011;11064;47.102;15.452;2023-02-15T20:07:29;84.38;;;36.17;;
21804;SDS011;11064;47.102;15.452;2023-02-15T20:09:55;84.30;;;36.58;;
21804;SDS011;11064;47.102;15.452;2023-02-15T20:12:24;85.68;;;37.63;;
21804;SDS011;11064;47.102;15.452;2023-02-15T20:14:53;90.03;;;36.75;;
21804;SDS011;11064;47.102;15.452;2023-02-15T20:17:20;88.38;;;37.08;;
21804;SDS011;11064;47.102;15.452;2023-02-15T20:19:47;88.03;;;36.70;;
21804;SDS011;11064;47.102;15.452;2023-02-15T20:22:23;87.55;;;37.40;;
21804;SDS011;11064;47.102;15.452;2023-02-15T20:24:53;88.68;;;38.00;;
21804;SDS011;11064;47.102;15.452;2023-02-15T20:27:21;93.25;;;37.25;;
21804;SDS011;11064;47.102;15.452;2023-02-15T20:29:48;85.07;;;35.30;;
21804;SDS011;11064;47.102;15.452;2023-02-15T20:32:20;83.53;;;36.05;;
21804;SDS011;11064;47.102;15.452;2023-02-15T20:34:46;83.55;;;36.72;;
21804;SDS011;11064;47.102;15.452;2023-02-15T20:37:23;85.40;;;36.83;;
21804;SDS011;11064;47.102;15.452;2023-02-15T20:39:55;81.50;;;35.85;;
21804;SDS011;11064;47.102;15.452;2023-02-15T20:42:21;84.85;;;36.47;;
21804;SDS011;11064;47.102;15.452;2023-02-15T20:44:49;87.65;;;37.03;;
21804;SDS011;11064;47.102;15.452;2023-02-15T20:47:15;92.90;;;36.95;;
21804;SDS011;11064;47.102;15.452;2023-02-15T20:49:42;80.88;;;36.30;;
21804;SDS011;11064;47.102;15.452;2023-02-15T20:52:18;82.13;;;35.80;;
21804;SDS011;11064;47.102;15.452;2023-02-15T20:54:45;80.65;;;34.45;;
21804;SDS011;11064;47.102;15.452;2023-02-15T20:57:11;82.10;;;36.13;;
21804;SDS011;11064;47.102;15.452;2023-02-15T20:59:38;79.43;;;34.90;;
21804;SDS011;11064;47.102;15.452;2023-02-15T21:04:43;77.53;;;33.97;;
21804;SDS011;11064;47.102;15.452;2023-02-15T21:07:14;76.45;;;34.22;;
21804;SDS011;11064;47.102;15.452;2023-02-15T21:09:41;86.43;;;35.40;;
21804;SDS011;11064;47.102;15.452;2023-02-15T21:12:10;82.97;;;36.35;;
21804;SDS011;11064;47.102;15.452;2023-02-15T21:14:39;81.15;;;33.85;;
21804;SDS011;11064;47.102;15.452;2023-02-15T21:17:05;88.97;;;35.55;;
21804;SDS011;11064;47.102;15.452;2023-02-15T21:19:35;84.97;;;36.55;;
21804;SDS011;11064;47.102;15.452;2023-02-15T21:22:02;82.75;;;35.60;;
21804;SDS011;11064;47.102;15.452;2023-02-15T21:24:28;84.82;;;35.85;;
21804;SDS011;11064;47.102;15.452;2023-02-15T21:26:56;88.95;;;37.75;;
21804;SDS011;11064;47.102;15.452;2023-02-15T21:29:27;77.20;;;34.35;;
21804;SDS011;11064;47.102;15.452;2023-02-15T21:31:54;89.60;;;36.40;;
21804;SDS011;11064;47.102;15.452;2023-02-15T21:34:24;84.60;;;36.22;;
21804;SDS011;11064;47.102;15.452;2023-02-15T21:36:52;83.43;;;35.88;;
21804;SDS011;11064;47.102;15.452;2023-02-15T21:39:20;86.40;;;34.38;;
21804;SDS011;11064;47.102;15.452;2023-02-15T21:41:49;79.30;;;35.92;;
21804;SDS011;11064;47.102;15.452;2023-02-15T21:44:34;84.28;;;33.30;;
21804;SDS011;11064;47.102;15.452;2023-02-15T21:47:20;84.40;;;34.97;;
21804;SDS011;11064;47.102;15.452;2023-02-15T21:50:06;81.35;;;33.63;;
21804;SDS011;11064;47.102;15.452;2023-02-15T21:53:12;73.28;;;32.42;;
21804;SDS011;11064;47.102;15.452;2023-02-15T21:55:43;77.40;;;33.50;;
21804;SDS011;11064;47.102;15.452;2023-02-15T21:58:19;84.32;;;34.65;;
21804;SDS011;11064;47.102;15.452;2023-02-15T22:00:46;79.57;;;32.60;;
21804;SDS011;11064;47.102;15.452;2023-02-15T22:03:13;76.10;;;32.47;;
21804;SDS011;11064;47.102;15.452;2023-02-15T22:05:39;74.57;;;32.33;;
21804;SDS011;11064;47.102;15.452;2023-02-15T22:08:12;76.20;;;32.30;;
21804;SDS011;11064;47.102;15.452;2023-02-15T22:10:40;77.47;;;32.67;;
21804;SDS011;11064;47.102;15.452;2023-02-15T22:13:17;76.32;;;33.22;;
21804;SDS011;11064;47.102;15.452;2023-02-15T22:15:50;72.20;;;33.75;;
21804;SDS011;11064;47.102;15.452;2023-02-15T22:18:20;71.10;;;30.65;;
21804;SDS011;11064;47.102;15.452;2023-02-15T22:20:48;75.78;;;31.73;;
21804;SDS011;11064;47.102;15.452;2023-02-15T22:23:15;74.25;;;32.97;;
21804;SDS011;11064;47.102;15.452;2023-02-15T22:25:41;78.90;;;33.40;;
21804;SDS011;11064;47.102;15.452;2023-02-15T22:28:13;78.35;;;32.28;;
21804;SDS011;11064;47.102;15.452;2023-02-15T22:30:41;75.28;;;32.55;;
21804;SDS011;11064;47.102;15.452;2023-02-15T22:33:20;80.18;;;33.78;;
21804;SDS011;11064;47.102;15.452;2023-02-15T22:35:56;73.35;;;31.17;;
21804;SDS011;11064;47.102;15.452;2023-02-15T22:38:22;77.15;;;33.10;;
21804;SDS011;11064;47.102;15.452;2023-02-15T22:40:48;77.25;;;32.85;;
21804;SDS011;11064;47.102;15.452;2023-02-15T22:43:37;75.10;;;32.72;;
21804;SDS011;11064;47.102;15.452;2023-02-15T22:46:04;72.50;;;31.90;;
21804;SDS011;11064;47.102;15.452;2023-02-15T22:48:43;76.50;;;31.80;;
21804;SDS011;11064;47.102;15.452;2023-02-15T22:51:12;70.50;;;30.40;;